Time;durP1;ratioP1;P1;durP2;ratioP2;P2;SDS_P1;SDS_P2;PMS_P1;PMS_P2;Temp;Humidity;BMP_temperature;BMP_pressure;BME280_temperature;BME280_humidity;BME280_pressure;Samples;Min_cycle;Max_cycle;Signal;HPM_P1;HPM_P2
2022/05/22 00:02:14;;;;;;;2.58;1.70;;;;;;;13.94;100.00;100258.63;5013763;28;20106;-68
2022/05/22 00:04:39;;;;;;;6.15;1.85;;;;;;;13.86;100.00;100242.94;5012664;28;20032;-68
2022/05/22 00:07:08;;;;;;;5.25;1.85;;;;;;;13.92;100.00;100257.84;5011090;28;20448;-68
2022/05/22 00:09:35;;;;;;;2.97;1.45;;;;;;;13.95;100.00;100252.38;5010638;28;20096;-68
2022/05/22 00:12:01;;;;;;;4.75;1.70;;;;;;;13.95;100.00;100247.88;5012339;28;20313;-68
2022/05/22 00:14:27;;;;;;;4.35;2.10;;;;;;;13.84;100.00;100247.47;5012485;28;20033;-68
2022/05/22 00:16:52;;;;;;;2.35;1.35;;;;;;;13.95;100.00;100257.72;5012263;28;20025;-68
2022/05/22 00:19:22;;;;;;;5.45;1.85;;;;;;;13.93;100.00;100248.88;5013418;28;20487;-68
2022/05/22 00:21:48;;;;;;;2.70;1.55;;;;;;;13.91;100.00;100253.41;5013519;28;20088;-68
2022/05/22 00:24:15;;;;;;;2.70;1.60;;;;;;;13.85;100.00;100251.00;5013140;28;20050;-68
2022/05/22 00:26:40;;;;;;;3.60;1.60;;;;;;;13.74;100.00;100237.22;5013168;28;20038;-68
2022/05/22 00:29:06;;;;;;;4.10;2.08;;;;;;;13.77;100.00;100247.78;5013275;28;20030;-67
2022/05/22 00:31:32;;;;;;;4.85;1.60;;;;;;;13.73;100.00;100238.16;5013384;28;20129;-67
2022/05/22 00:33:57;;;;;;;3.30;1.52;;;;;;;13.68;100.00;100227.66;5013589;28;20061;-68
2022/05/22 00:36:23;;;;;;;3.67;1.52;;;;;;;13.70;100.00;100241.84;5012926;28;20033;-68
2022/05/22 00:38:48;;;;;;;2.13;1.65;;;;;;;13.64;100.00;100230.53;5013018;28;20026;-68
2022/05/22 00:41:15;;;;;;;2.50;1.60;;;;;;;13.58;100.00;100228.97;5013336;28;20448;-68
2022/05/22 00:43:43;;;;;;;2.67;1.67;;;;;;;13.63;100.00;100250.16;5013390;28;20105;-68
2022/05/22 00:46:13;;;;;;;3.22;2.10;;;;;;;13.66;100.00;100244.69;5013224;28;20026;-68
2022/05/22 00:48:43;;;;;;;3.92;2.10;;;;;;;13.62;100.00;100241.28;5012842;28;20496;-68
2022/05/22 00:51:13;;;;;;;3.28;1.58;;;;;;;13.60;100.00;100237.81;5013229;28;20441;-68
2022/05/22 00:53:42;;;;;;;2.30;1.60;;;;;;;13.56;100.00;100230.81;5013049;28;20065;-68
2022/05/22 00:56:11;;;;;;;3.08;1.65;;;;;;;13.45;100.00;100210.81;5012892;28;20097;-68
2022/05/22 00:58:37;;;;;;;5.55;1.75;;;;;;;13.48;100.00;100226.72;5012822;28;20030;-68
2022/05/22 01:01:03;;;;;;;3.58;1.98;;;;;;;13.46;100.00;100228.63;5013090;28;20140;-68
2022/05/22 01:03:31;;;;;;;3.55;1.90;;;;;;;13.46;100.00;100236.63;5012778;28;20700;-68
2022/05/22 01:06:09;;;;;;;2.70;1.77;;;;;;;13.48;100.00;100245.44;5012663;28;20026;-68
2022/05/22 01:08:37;;;;;;;3.53;1.77;;;;;;;13.48;100.00;100240.09;5012899;28;20041;-68
2022/05/22 01:11:07;;;;;;;4.55;2.03;;;;;;;13.43;100.00;100234.06;5012798;28;20087;-68
2022/05/22 01:13:39;;;;;;;2.83;1.77;;;;;;;13.48;100.00;100229.41;4993639;28;20049;-68
2022/05/22 01:16:06;;;;;;;3.10;1.77;;;;;;;13.39;100.00;100224.44;5011095;28;20061;-68
2022/05/22 01:18:45;;;;;;;4.05;2.40;;;;;;;13.42;100.00;100240.34;5010841;28;20037;-68
2022/05/22 01:21:18;;;;;;;2.83;1.77;;;;;;;13.42;100.00;100235.00;5011321;28;20105;-67
2022/05/22 01:23:43;;;;;;;3.30;2.03;;;;;;;13.44;100.00;100235.81;5009580;28;20050;-67
2022/05/22 01:26:09;;;;;;;6.70;2.05;;;;;;;13.41;100.00;100238.63;5009728;28;20087;-67
2022/05/22 01:28:35;;;;;;;2.85;2.20;;;;;;;13.45;100.00;100245.56;5010558;28;20030;-67
2022/05/22 01:31:01;;;;;;;3.80;1.80;;;;;;;13.42;100.00;100232.34;5011128;28;20044;-67
2022/05/22 01:33:27;;;;;;;4.38;1.80;;;;;;;13.43;100.00;100231.38;5010998;28;20088;-67
2022/05/22 01:35:53;;;;;;;3.38;1.55;;;;;;;13.41;100.00;100233.28;5010851;28;20107;-67
2022/05/22 01:38:18;;;;;;;4.13;1.70;;;;;;;13.43;100.00;100236.72;5011555;28;20053;-67
2022/05/22 01:40:43;;;;;;;5.18;1.73;;;;;;;13.46;100.00;100242.81;5010077;28;20493;-67
2022/05/22 01:43:09;;;;;;;2.67;1.85;;;;;;;13.50;100.00;100232.88;5009460;28;20030;-67
2022/05/22 01:45:36;;;;;;;3.28;1.90;;;;;;;13.49;100.00;100231.16;5012077;28;20117;-67
2022/05/22 01:48:01;;;;;;;3.38;1.98;;;;;;;13.50;100.00;100222.19;5012105;28;20459;-67
2022/05/22 01:50:27;;;;;;;3.22;1.70;;;;;;;13.53;100.00;100219.38;5012219;28;20033;-68
2022/05/22 01:52:53;;;;;;;3.13;2.00;;;;;;;13.52;100.00;100218.53;5010776;28;20041;-68
2022/05/22 01:55:19;;;;;;;5.05;2.13;;;;;;;13.44;100.00;100222.47;5011755;28;20560;-68
2022/05/22 01:57:45;;;;;;;2.60;1.63;;;;;;;13.37;100.00;100219.16;5012014;28;20139;-67
2022/05/22 02:00:15;;;;;;;4.68;2.50;;;;;;;13.34;100.00;100205.06;5012030;28;20029;-67
2022/05/22 02:02:41;;;;;;;6.53;2.40;;;;;;;13.37;100.00;100207.59;5011600;28;20156;-67
2022/05/22 02:05:07;;;;;;;6.32;2.35;;;;;;;13.42;100.00;100200.25;5011357;28;20037;-67
2022/05/22 02:10:16;;;;;;;4.65;2.05;;;;;;;13.49;100.00;100183.06;5011758;28;20041;-67
2022/05/22 02:12:41;;;;;;;2.92;1.70;;;;;;;13.53;100.00;100190.00;5011384;28;20038;-67
2022/05/22 02:15:07;;;;;;;3.58;1.80;;;;;;;13.60;100.00;100189.69;5011680;28;20026;-67
2022/05/22 02:17:33;;;;;;;2.90;1.92;;;;;;;13.56;100.00;100205.94;4993998;28;20605;-67
2022/05/22 02:19:59;;;;;;;3.05;2.03;;;;;;;13.45;100.00;100178.75;5011326;28;20034;-67
2022/05/22 02:22:24;;;;;;;3.53;2.05;;;;;;;13.45;100.00;100192.13;4993467;28;20095;-67
2022/05/22 02:24:51;;;;;;;4.68;2.35;;;;;;;13.45;100.00;100198.34;5011442;28;20533;-67
2022/05/22 02:27:17;;;;;;;2.38;1.70;;;;;;;13.38;100.00;100185.31;5011441;28;20152;-67
2022/05/22 02:29:43;;;;;;;4.15;2.28;;;;;;;13.36;100.00;100189.84;5011471;28;20078;-67
2022/05/22 02:32:09;;;;;;;2.65;1.88;;;;;;;13.29;100.00;100191.03;5010537;28;20117;-67
2022/05/22 02:34:34;;;;;;;3.17;1.77;;;;;;;13.10;100.00;100175.75;5009968;28;20030;-67
2022/05/22 02:37:01;;;;;;;2.88;1.80;;;;;;;13.13;100.00;100180.94;5008696;28;20026;-67
2022/05/22 02:39:26;;;;;;;4.85;2.10;;;;;;;13.11;100.00;100182.81;5008445;28;20065;-67
2022/05/22 02:41:52;;;;;;;6.50;2.10;;;;;;;13.11;100.00;100182.81;5001513;28;20061;-67
2022/05/22 02:44:17;;;;;;;4.35;2.22;;;;;;;13.07;100.00;100174.97;4989756;28;20589;-67
2022/05/22 02:46:43;;;;;;;3.78;1.90;;;;;;;13.00;100.00;100174.31;4989814;28;20095;-67
2022/05/22 02:49:08;;;;;;;3.00;1.60;;;;;;;12.98;100.00;100168.16;4988722;28;20057;-67
2022/05/22 02:51:35;;;;;;;3.50;1.88;;;;;;;12.92;100.00;100172.88;4990313;28;20026;-67
2022/05/22 02:54:00;;;;;;;3.38;2.15;;;;;;;12.89;100.00;100168.56;4991578;28;20030;-67
2022/05/22 02:56:27;;;;;;;10.20;3.65;;;;;;;12.85;100.00;100171.41;4991641;28;20501;-67
2022/05/22 02:58:53;;;;;;;5.25;2.22;;;;;;;12.84;100.00;100175.00;4990054;28;20027;-67
2022/05/22 03:01:18;;;;;;;4.55;2.20;;;;;;;12.85;100.00;100179.41;4991550;28;20059;-67
2022/05/22 03:03:43;;;;;;;3.15;2.20;;;;;;;12.81;100.00;100178.66;4991443;28;20026;-67
2022/05/22 03:08:53;;;;;;;3.78;2.00;;;;;;;12.69;100.00;100176.47;4991722;28;20526;-67
2022/05/22 03:11:18;;;;;;;6.10;2.33;;;;;;;12.64;100.00;100173.09;4991452;28;20101;-67
2022/05/22 03:13:45;;;;;;;4.22;2.53;;;;;;;12.64;100.00;100173.09;4991409;28;20112;-67
2022/05/22 03:16:10;;;;;;;3.10;2.05;;;;;;;12.63;100.00;100168.72;4990511;28;20034;-67
2022/05/22 03:18:35;;;;;;;3.85;2.50;;;;;;;12.67;100.00;100166.75;5009437;28;20037;-67
2022/05/22 03:21:01;;;;;;;2.92;1.65;;;;;;;12.69;100.00;100157.78;5009372;28;20393;-67
2022/05/22 03:23:26;;;;;;;4.15;2.05;;;;;;;12.67;100.00;100148.97;5009429;28;20414;-67
2022/05/22 03:25:52;;;;;;;3.40;1.90;;;;;;;12.72;100.00;100163.00;5009616;28;20037;-67
2022/05/22 03:28:17;;;;;;;8.07;2.00;;;;;;;12.68;100.00;100144.50;5009476;28;20025;-67
2022/05/22 03:30:43;;;;;;;5.53;2.00;;;;;;;12.67;100.00;100142.75;5010011;28;20026;-67
2022/05/22 03:33:10;;;;;;;6.15;1.95;;;;;;;12.68;100.00;100144.50;5010743;28;20117;-67
2022/05/22 03:35:35;;;;;;;10.57;2.63;;;;;;;12.69;100.00;100125.75;5010837;28;20026;-67
2022/05/22 03:38:02;;;;;;;3.83;2.25;;;;;;;12.82;100.00;100132.34;5010722;28;20543;-67
2022/05/22 03:40:28;;;;;;;3.00;1.75;;;;;;;12.76;100.00;100143.28;5010913;28;20529;-67
2022/05/22 03:42:54;;;;;;;6.78;1.80;;;;;;;12.62;100.00;100153.59;5010743;28;20113;-67
2022/05/22 03:45:19;;;;;;;4.10;2.03;;;;;;;12.44;100.00;100167.66;5010762;28;20080;-67
2022/05/22 03:47:44;;;;;;;3.83;1.85;;;;;;;12.40;100.00;100167.81;5010252;28;20057;-67
2022/05/22 03:50:12;;;;;;;4.30;2.15;;;;;;;12.31;100.00;100160.16;4992812;28;20032;-67
2022/05/22 03:52:40;;;;;;;3.17;2.10;;;;;;;12.25;100.00;100155.06;5010237;28;20053;-67
2022/05/22 03:55:11;;;;;;;4.32;2.22;;;;;;;12.31;100.00;100153.03;5009022;28;20114;-67
2022/05/22 03:57:37;;;;;;;5.40;2.67;;;;;;;12.41;100.00;100146.44;5008538;28;20068;-67
2022/05/22 04:00:06;;;;;;;3.13;1.90;;;;;;;12.39;100.00;100128.75;4991572;28;20038;-67
2022/05/22 04:02:33;;;;;;;4.78;2.17;;;;;;;12.50;100.00;100147.88;5011837;28;20097;-67
2022/05/22 04:04:58;;;;;;;4.60;1.83;;;;;;;12.53;100.00;100137.97;5011481;28;20362;-67
2022/05/22 04:07:24;;;;;;;5.97;2.20;;;;;;;12.54;100.00;100131.69;5011513;28;20036;-67
2022/05/22 04:09:50;;;;;;;5.10;2.20;;;;;;;12.59;100.00;100123.50;5011319;28;20028;-67
2022/05/22 04:12:15;;;;;;;2.90;1.80;;;;;;;12.57;100.00;100109.38;5011940;28;20469;-67
2022/05/22 04:14:41;;;;;;;4.18;2.15;;;;;;;12.71;100.00;100113.22;5011795;28;20045;-67
2022/05/22 04:17:06;;;;;;;4.82;1.98;;;;;;;12.69;100.00;100104.41;5012268;28;20029;-67
2022/05/22 04:19:32;;;;;;;3.55;1.73;;;;;;;12.85;100.00;100115.34;5013853;28;20038;-67
2022/05/22 04:21:58;;;;;;;3.90;2.05;;;;;;;12.81;100.00;100114.59;5013962;28;20047;-67
2022/05/22 04:27:07;;;;;;;4.90;1.80;;;;;;;12.86;100.00;100107.28;5013633;28;20182;-67
2022/05/22 04:29:35;;;;;;;3.83;2.13;;;;;;;12.87;100.00;100108.13;5013365;28;20026;-67
2022/05/22 04:32:00;;;;;;;3.70;1.90;;;;;;;12.91;100.00;100112.44;5013262;28;20385;-67
2022/05/22 04:34:26;;;;;;;4.70;2.33;;;;;;;12.95;100.00;100109.56;5013431;28;20057;-67
2022/05/22 04:36:51;;;;;;;3.00;2.00;;;;;;;12.89;100.00;100090.25;4995726;28;20342;-67
2022/05/22 04:39:17;;;;;;;2.58;2.00;;;;;;;13.02;100.00;100103.09;5013385;28;20026;-67
2022/05/22 04:41:42;;;;;;;3.45;1.80;;;;;;;12.99;100.00;100092.50;5006770;28;20026;-67
2022/05/22 04:44:08;;;;;;;4.57;2.20;;;;;;;13.12;100.00;100104.44;4993706;28;20034;-67
2022/05/22 04:46:34;;;;;;;11.30;2.58;;;;;;;13.21;100.00;100104.03;4993599;28;20033;-67
2022/05/22 04:48:59;;;;;;;3.60;2.17;;;;;;;13.23;100.00;100098.63;4993914;28;20041;-67
2022/05/22 04:51:25;;;;;;;7.35;2.30;;;;;;;13.37;100.00;100106.06;4993657;28;20580;-67
2022/05/22 04:53:50;;;;;;;3.95;2.63;;;;;;;13.49;100.00;100105.56;4993536;28;20413;-67
2022/05/22 04:56:16;;;;;;;2.83;1.80;;;;;;;13.60;100.00;100103.28;4993570;28;20077;-67
2022/05/22 04:58:42;;;;;;;3.30;1.98;;;;;;;13.70;100.00;100099.28;4993433;28;20060;-67
2022/05/22 05:01:09;;;;;;;5.15;2.47;;;;;;;13.82;100.00;100096.91;4975847;28;20133;-67
2022/05/22 05:03:35;;;;;;;3.83;2.03;;;;;;;13.97;100.00;100108.75;4992001;28;20077;-67
2022/05/22 05:06:01;;;;;;;5.00;2.40;;;;;;;14.13;100.00;100115.16;4993516;28;20397;-67
2022/05/22 05:08:27;;;;;;;3.88;2.20;;;;;;;14.23;100.00;100113.78;4993515;28;20041;-67
2022/05/22 05:10:53;;;;;;;3.80;2.47;;;;;;;14.32;100.00;100105.38;4992936;28;20733;-67
2022/05/22 05:13:20;;;;;;;4.35;2.10;;;;;;;14.49;100.00;100100.09;5011799;28;20073;-67
2022/05/22 05:15:46;;;;;;;4.28;2.08;;;;;;;14.63;100.00;100094.94;5012915;28;20021;-67
2022/05/22 05:18:13;;;;;;;3.28;1.90;;;;;;;14.76;100.00;100092.56;5012610;28;20029;-67
2022/05/22 05:20:39;;;;;;;3.17;1.90;;;;;;;14.84;100.00;100096.63;5012758;28;20037;-67
2022/05/22 05:23:05;;;;;;;3.95;2.28;;;;;;;14.85;100.00;100093.00;5012419;28;20130;-67
2022/05/22 05:25:31;;;;;;;2.92;1.70;;;;;;;14.97;100.00;100092.41;5012421;28;20096;-67
2022/05/22 05:27:57;;;;;;;4.68;2.08;;;;;;;15.09;100.00;100097.13;5012441;28;20022;-67
2022/05/22 05:30:22;;;;;;;4.53;2.05;;;;;;;15.26;100.00;100094.50;5012479;28;20034;-67
2022/05/22 05:32:54;;;;;;;5.85;2.47;;;;;;;15.38;100.00;100104.59;5012301;28;20037;-67
2022/05/22 05:35:19;;;;;;;4.50;2.05;;;;;;;15.40;100.00;100108.06;5012494;28;20477;-67
2022/05/22 05:37:46;;;;;;;4.07;2.30;;;;;;;15.46;99.22;100110.47;5012441;28;20021;-67
2022/05/22 05:40:12;;;;;;;5.45;2.35;;;;;;;15.62;98.83;100108.72;5012242;28;20038;-67
2022/05/22 05:42:37;;;;;;;3.42;1.90;;;;;;;15.69;97.81;100094.06;4998108;28;20066;-67
2022/05/22 05:45:05;;;;;;;2.75;1.65;;;;;;;15.80;97.01;100102.41;4992475;28;20389;-67
2022/05/22 05:47:31;;;;;;;3.80;2.05;;;;;;;15.82;95.76;100108.56;4998622;28;20033;-67
2022/05/22 05:49:56;;;;;;;5.35;2.40;;;;;;;15.79;95.13;100111.41;4994762;28;20037;-67
2022/05/22 05:52:22;;;;;;;5.43;2.20;;;;;;;15.79;94.74;100114.09;5012210;28;20037;-67
2022/05/22 05:54:47;;;;;;;3.08;2.10;;;;;;;15.75;94.37;100112.50;5011972;28;20025;-67
2022/05/22 05:57:16;;;;;;;5.32;2.42;;;;;;;15.78;94.88;100117.69;5011440;28;20044;-67
2022/05/22 05:59:42;;;;;;;5.00;2.20;;;;;;;15.85;95.90;100117.41;5011700;28;20029;-67
2022/05/22 06:02:15;;;;;;;3.95;1.98;;;;;;;15.95;96.39;100110.63;5011554;28;20029;-67
2022/05/22 06:04:41;;;;;;;3.67;2.33;;;;;;;16.07;97.06;100108.13;5011860;28;20456;-67
2022/05/22 06:07:07;;;;;;;3.38;2.00;;;;;;;16.17;96.16;100103.13;5011803;28;20030;-67
2022/05/22 06:09:34;;;;;;;4.82;2.33;;;;;;;16.32;95.72;100103.19;5011292;28;20026;-67
2022/05/22 06:11:59;;;;;;;3.90;1.98;;;;;;;16.42;94.84;100098.16;5002277;28;20031;-67
2022/05/22 06:14:25;;;;;;;4.18;2.40;;;;;;;16.59;93.13;100106.22;4992164;28;20037;-67
2022/05/22 06:16:51;;;;;;;4.30;2.05;;;;;;;16.71;90.75;100106.38;4997654;28;20040;-66
2022/05/22 06:19:53;;;;;;;5.10;2.30;;;;;;;16.85;89.12;100100.22;5011610;28;20539;-66
2022/05/22 06:22:02;;;;;;;3.60;2.17;;;;;;;17.08;87.56;100113.22;5011007;28;20120;-66
2022/05/22 06:24:28;;;;;;;5.78;2.35;;;;;;;17.29;86.19;100109.28;5010356;28;20129;-66
2022/05/22 06:26:53;;;;;;;3.28;2.00;;;;;;;17.50;84.88;100109.88;5009761;28;20061;-66
2022/05/22 06:29:20;;;;;;;3.47;2.20;;;;;;;17.62;83.14;100111.84;5010093;28;20022;-66
2022/05/22 06:31:45;;;;;;;5.97;2.13;;;;;;;17.72;82.63;100108.50;5010609;28;20511;-66
2022/05/22 06:34:11;;;;;;;4.40;2.25;;;;;;;17.87;82.28;100114.78;5010729;28;20026;-66
2022/05/22 06:36:36;;;;;;;3.28;2.10;;;;;;;18.04;80.77;100111.91;5010581;28;20496;-66
2022/05/22 06:41:46;;;;;;;4.82;2.53;;;;;;;18.68;79.29;100109.63;5010723;28;20396;-66
2022/05/22 06:44:11;;;;;;;5.68;2.20;;;;;;;18.92;78.10;100118.84;5011309;28;20112;-66
2022/05/22 06:46:36;;;;;;;6.05;2.40;;;;;;;19.13;77.58;100116.56;5011144;28;20397;-66
2022/05/22 06:49:02;;;;;;;5.30;2.40;;;;;;;19.26;77.42;100106.69;5011284;28;20041;-66
2022/05/22 06:51:28;;;;;;;6.47;2.50;;;;;;;19.50;76.26;100115.91;5011154;28;20037;-66
2022/05/22 06:53:53;;;;;;;8.93;2.72;;;;;;;20.00;74.17;100110.59;5010987;28;20468;-66
2022/05/22 06:56:19;;;;;;;7.47;2.88;;;;;;;20.24;71.25;100108.91;5011418;28;20032;-66
2022/05/22 06:58:44;;;;;;;4.20;2.58;;;;;;;20.28;69.00;100099.59;5010904;28;20077;-66
2022/05/22 07:01:10;;;;;;;3.95;2.35;;;;;;;20.29;70.62;100095.06;5011088;28;20021;-66
2022/05/22 07:03:38;;;;;;;4.38;2.85;;;;;;;20.75;67.81;100088.97;5011308;28;20022;-66
2022/05/22 07:06:04;;;;;;;4.22;2.15;;;;;;;20.98;68.47;100086.41;5010761;28;20038;-66
2022/05/22 07:08:29;;;;;;;4.95;2.20;;;;;;;21.09;67.49;100081.09;5011169;28;20034;-66
2022/05/22 07:13:39;;;;;;;3.95;2.45;;;;;;;21.72;64.52;100097.84;5011074;28;20056;-66
2022/05/22 07:16:05;;;;;;;3.90;2.40;;;;;;;21.92;62.64;100089.09;5010888;28;20021;-66
2022/05/22 07:18:31;;;;;;;4.40;2.72;;;;;;;21.95;63.76;100086.13;5010995;28;20045;-66
2022/05/22 07:20:57;;;;;;;9.07;3.20;;;;;;;22.12;62.28;100088.41;5010901;28;20026;-66
2022/05/22 07:23:23;;;;;;;5.95;2.90;;;;;;;22.27;63.27;100084.47;5010767;28;20042;-66
2022/05/22 07:25:48;;;;;;;5.50;3.15;;;;;;;22.37;62.31;100090.91;5010683;28;20037;-66
2022/05/22 07:28:14;;;;;;;4.30;2.90;;;;;;;22.34;63.43;100091.13;5010860;28;20054;-66
2022/05/22 07:30:39;;;;;;;6.05;3.22;;;;;;;22.58;63.46;100088.34;5010804;28;20113;-66
2022/05/22 07:33:05;;;;;;;5.65;2.92;;;;;;;22.64;63.00;100083.28;4992848;28;20072;-66
2022/05/22 07:35:30;;;;;;;6.35;3.33;;;;;;;22.90;64.59;100079.28;5012718;28;20029;-66
2022/05/22 07:37:57;;;;;;;6.38;2.97;;;;;;;23.18;63.89;100078.75;5014459;28;20480;-66
2022/05/22 07:40:22;;;;;;;4.97;2.80;;;;;;;23.40;61.36;100066.97;5014345;28;20040;-66
2022/05/22 07:42:48;;;;;;;6.13;2.72;;;;;;;23.50;61.01;100075.19;5013634;28;20022;-66
2022/05/22 07:45:15;;;;;;;5.45;2.55;;;;;;;23.91;58.22;100064.38;5014039;28;20121;-66
2022/05/22 07:47:41;;;;;;;4.20;2.05;;;;;;;24.22;58.23;100066.16;5012618;28;20474;-67
2022/05/22 07:50:17;;;;;;;5.75;2.95;;;;;;;24.75;54.53;100053.25;5012735;28;20088;-67
2022/05/22 07:52:43;;;;;;;4.50;2.25;;;;;;;25.12;51.94;100062.53;5012314;28;20378;-67
2022/05/22 07:55:14;;;;;;;4.65;1.98;;;;;;;25.34;50.86;100060.41;5012184;28;20032;-66
2022/05/22 07:57:44;;;;;;;5.70;1.90;;;;;;;25.47;48.15;100063.75;5012569;28;20095;-66
2022/05/22 08:00:12;;;;;;;4.10;1.75;;;;;;;25.67;48.65;100060.03;5012035;28;20143;-66
2022/05/22 08:02:38;;;;;;;4.82;1.58;;;;;;;25.60;48.36;100068.94;5013123;28;20064;-66
2022/05/22 08:05:05;;;;;;;5.18;1.80;;;;;;;25.23;49.51;100065.13;5013078;28;20022;-67
2022/05/22 08:07:32;;;;;;;4.78;1.63;;;;;;;24.81;49.90;100055.44;5012426;28;20033;-67
2022/05/22 08:09:57;;;;;;;4.30;2.05;;;;;;;24.62;52.73;100045.31;5012589;28;20032;-67
2022/05/22 08:12:23;;;;;;;3.90;1.90;;;;;;;24.59;52.70;100037.44;5011949;28;20038;-67
2022/05/22 08:14:48;;;;;;;4.55;2.38;;;;;;;24.51;51.95;100045.44;5012186;28;20098;-67
2022/05/22 08:17:15;;;;;;;4.50;1.70;;;;;;;24.28;54.33;100043.91;5012254;28;20064;-67
2022/05/22 08:19:41;;;;;;;5.55;1.90;;;;;;;24.55;53.91;100046.88;5013116;28;20119;-67
2022/05/22 08:22:07;;;;;;;3.47;1.65;;;;;;;24.76;53.22;100049.56;5013427;28;20054;-67
2022/05/22 08:24:32;;;;;;;2.85;2.03;;;;;;;24.83;52.60;100045.28;5013806;28;20111;-67
2022/05/22 08:26:58;;;;;;;3.15;1.85;;;;;;;25.02;50.71;100046.19;5013585;28;20030;-67
2022/05/22 08:29:23;;;;;;;4.70;1.75;;;;;;;25.19;49.43;100045.47;5013639;28;20041;-67
2022/05/22 08:31:48;;;;;;;5.47;1.80;;;;;;;25.07;48.54;100038.47;5013408;28;20113;-67
2022/05/22 08:34:14;;;;;;;5.00;2.08;;;;;;;25.53;49.01;100035.94;5013631;28;20022;-68
2022/05/22 08:36:39;;;;;;;5.88;2.10;;;;;;;25.42;46.62;100029.78;5013270;28;20045;-68
2022/05/22 08:39:05;;;;;;;2.30;1.48;;;;;;;25.55;47.25;100027.63;5013118;28;20476;-68
2022/05/22 08:41:40;;;;;;;3.67;2.20;;;;;;;25.82;46.93;100025.88;5008295;28;20057;-68
2022/05/22 08:44:18;;;;;;;3.17;1.70;;;;;;;26.22;47.22;100016.63;4992238;28;20086;-68
2022/05/22 08:47:01;;;;;;;3.30;1.45;;;;;;;26.08;46.61;100023.41;4990969;28;20030;-68
2022/05/22 08:49:41;;;;;;;5.05;1.67;;;;;;;25.97;45.78;100018.09;4992164;28;20038;-68
2022/05/22 08:52:19;;;;;;;3.25;1.70;;;;;;;25.94;45.74;100018.38;4992130;28;20026;-68
2022/05/22 08:55:08;;;;;;;3.15;1.27;;;;;;;26.01;45.30;100010.47;4992108;28;20389;-68
2022/05/22 09:00:39;;;;;;;4.05;1.30;;;;;;;26.79;43.25;99995.41;4993538;28;20129;-68
2022/05/22 09:03:14;;;;;;;2.65;1.38;;;;;;;27.00;42.91;100003.31;4993395;28;20033;-68
2022/05/22 09:05:40;;;;;;;6.82;1.70;;;;;;;26.98;43.08;100002.63;4993218;28;20050;-68
2022/05/22 09:08:19;;;;;;;5.05;1.50;;;;;;;27.01;42.64;99999.56;4993050;28;20327;-68
2022/05/22 09:11:03;;;;;;;4.35;1.30;;;;;;;26.93;44.37;100002.22;4993437;28;20030;-68
2022/05/22 09:13:57;;;;;;;3.38;1.10;;;;;;;27.12;42.16;99989.28;4993140;28;20044;-68
2022/05/22 09:16:33;;;;;;;2.40;1.05;;;;;;;27.21;41.46;99987.50;4994702;28;20038;-68
2022/05/22 09:19:10;;;;;;;1.92;0.90;;;;;;;27.16;40.99;99981.66;5012613;28;20033;-68
2022/05/22 09:21:44;;;;;;;5.25;1.20;;;;;;;27.18;41.53;99977.72;5012862;28;20026;-68
2022/05/22 09:24:51;;;;;;;2.63;1.55;;;;;;;27.12;41.48;99977.50;5012416;28;20050;-68
2022/05/22 09:27:25;;;;;;;6.07;1.48;;;;;;;27.28;40.69;99974.09;4951761;29;20823;-68
2022/05/22 09:30:17;;;;;;;2.22;0.93;;;;;;;27.27;38.39;99973.19;4951569;29;20038;-68
2022/05/22 09:33:08;;;;;;;5.10;1.20;;;;;;;27.75;39.96;99968.19;4969991;28;20038;-68
2022/05/22 09:36:12;;;;;;;2.65;0.80;;;;;;;28.60;38.99;99959.13;4993124;28;20045;-68
2022/05/22 09:38:56;;;;;;;2.40;0.90;;;;;;;28.89;37.25;99951.34;5010758;28;20116;-68
2022/05/22 09:41:49;;;;;;;3.22;1.00;;;;;;;28.90;39.33;99948.44;5006334;28;20100;-68
2022/05/22 09:44:48;;;;;;;4.50;0.80;;;;;;;29.01;36.27;99948.09;5003054;28;20374;-68
2022/05/22 09:47:33;;;;;;;2.05;0.80;;;;;;;29.12;37.89;99946.97;5012247;28;20488;-68
2022/05/22 09:50:11;;;;;;;2.08;1.00;;;;;;;29.10;34.73;99946.25;5012130;28;20030;-68
2022/05/22 09:52:44;;;;;;;3.85;0.70;;;;;;;29.10;37.71;99940.78;5012053;28;20026;-68
2022/05/22 09:55:37;;;;;;;2.55;0.40;;;;;;;28.98;34.44;99936.66;5011980;28;20535;-68
2022/05/22 09:58:15;;;;;;;3.10;0.88;;;;;;;29.04;34.47;99944.19;5011301;28;20028;-68
2022/05/22 10:00:51;;;;;;;3.03;0.70;;;;;;;29.33;33.71;99939.09;5010883;28;20032;-69
2022/05/22 10:03:31;;;;;;;3.95;1.00;;;;;;;29.59;35.53;99934.28;5010343;28;20014;-69
2022/05/22 10:06:10;;;;;;;3.65;0.93;;;;;;;29.97;33.37;99928.09;4991764;28;20021;-69
2022/05/22 10:08:35;;;;;;;7.03;0.68;;;;;;;30.29;35.47;99925.28;5010114;28;20088;-69
2022/05/22 10:11:10;;;;;;;3.00;0.50;;;;;;;30.43;33.69;99921.78;5009077;28;20029;-69
2022/05/22 10:13:58;;;;;;;1.27;0.90;;;;;;;30.22;34.04;99910.56;4990479;28;20037;-69
2022/05/22 10:16:36;;;;;;;4.45;1.02;;;;;;;30.48;34.46;99908.38;4994120;28;20117;-69
2022/05/22 10:19:23;;;;;;;1.20;0.60;;;;;;;30.59;33.56;99905.22;5011563;28;20382;-69
2022/05/22 10:22:06;;;;;;;1.85;0.70;;;;;;;30.42;33.02;99898.13;5011641;28;20116;-69
2022/05/22 10:24:56;;;;;;;2.47;0.70;;;;;;;30.38;32.73;99890.44;5010678;28;20058;-69
2022/05/22 10:27:57;;;;;;;2.50;0.60;;;;;;;30.76;33.02;99878.50;5010903;28;20022;-70
2022/05/22 10:30:25;;;;;;;3.38;0.57;;;;;;;31.28;33.79;99878.66;5010552;28;20108;-70
2022/05/22 10:33:00;;;;;;;0.85;0.57;;;;;;;31.28;32.80;99873.16;5010527;28;20045;-70
2022/05/22 10:35:32;;;;;;;2.15;0.77;;;;;;;31.29;33.22;99874.88;5010550;28;20432;-70
2022/05/22 10:38:04;;;;;;;0.95;0.50;;;;;;;31.51;32.87;99863.03;5009524;28;20033;-68
2022/05/22 10:43:13;;;;;;;4.82;2.38;;;;;;;31.55;30.64;99858.88;5007227;28;20107;-67
2022/05/22 10:45:40;;;;;;;2.30;0.63;;;;;;;30.90;31.65;99866.78;5007084;28;20469;-68
2022/05/22 10:48:22;;;;;;;0.80;0.43;;;;;;;31.36;33.92;99853.88;5007411;28;20030;-72
2022/05/22 10:50:58;;;;;;;3.00;0.80;;;;;;;31.87;30.85;99848.38;5007719;28;20057;-71
2022/05/22 10:53:39;;;;;;;1.38;0.70;;;;;;;32.09;32.76;99852.09;5008580;28;20036;-71
2022/05/22 10:56:15;;;;;;;1.40;0.40;;;;;;;32.50;31.01;99856.03;4992351;28;20034;-71
2022/05/22 10:58:53;;;;;;;6.32;0.60;;;;;;;32.10;30.61;99843.63;5010313;28;20497;-71
2022/05/22 11:01:23;;;;;;;4.25;1.02;;;;;;;32.37;31.90;99843.97;5010418;28;20104;-71
2022/05/22 11:04:01;;;;;;;1.38;0.65;;;;;;;32.65;32.82;99854.09;5010245;28;20028;-72
2022/05/22 11:06:26;;;;;;;1.50;0.45;;;;;;;32.82;30.80;99844.50;5010341;28;20025;-71
2022/05/22 11:08:54;;;;;;;4.30;0.85;;;;;;;33.03;30.61;99844.53;5009924;28;20032;-71
2022/05/22 11:11:27;;;;;;;8.77;2.22;;;;;;;33.51;30.00;99844.78;5013152;28;20037;-72
2022/05/22 11:14:03;;;;;;;1.70;0.50;;;;;;;33.51;28.86;99817.22;5013741;28;20092;-71
2022/05/22 11:16:29;;;;;;;1.70;0.50;;;;;;;33.29;29.36;99833.78;5013805;28;20030;-71
2022/05/22 11:19:24;;;;;;;1.15;0.60;;;;;;;33.52;27.95;99825.28;5013506;28;20029;-71
2022/05/22 11:21:58;;;;;;;2.40;0.60;;;;;;;33.38;29.61;99831.69;5011936;28;20064;-71
2022/05/22 11:24:53;;;;;;;2.97;0.63;;;;;;;32.74;29.40;99822.59;4973984;28;1168534;-71
2022/05/22 11:27:29;;;;;;;2.53;0.60;;;;;;;32.77;30.53;99830.47;5015041;28;20049;-71
2022/05/22 11:30:07;;;;;;;1.30;0.60;;;;;;;32.63;30.28;99833.28;5014569;28;20384;-71
2022/05/22 11:32:50;;;;;;;1.98;0.57;;;;;;;32.47;30.76;99834.38;5014691;28;20026;-71
2022/05/22 11:35:32;;;;;;;1.08;0.52;;;;;;;32.57;31.50;99823.06;5014031;28;20481;-71
2022/05/22 11:38:34;;;;;;;2.20;0.82;;;;;;;32.61;32.77;99819.72;5010769;28;20108;-71
2022/05/22 11:41:15;;;;;;;23.43;1.43;;;;;;;33.02;33.55;99807.00;5009332;28;20026;-71
2022/05/22 11:44:02;;;;;;;0.75;0.40;;;;;;;33.33;31.21;99788.19;4993391;28;20033;-71
2022/05/22 11:46:52;;;;;;;6.05;1.10;;;;;;;33.06;31.72;99790.94;4995553;28;20400;-71
2022/05/22 11:49:29;;;;;;;4.43;0.50;;;;;;;33.02;31.23;99779.44;4993116;28;20109;-71
2022/05/22 11:52:56;;;;;;;15.52;2.10;;;;;;;32.72;30.26;99783.38;4993142;28;20034;-71
2022/05/22 11:55:59;;;;;;;2.72;0.85;;;;;;;32.84;30.66;99779.03;4991460;28;20019;-71